sensor_id;sensor_type;location;lat;lon;timestamp;pressure;altitude;pressure_sealevel;temperature;humidity
77572;BME280;67214;47.454;18.966;2023-02-28T00:01:23;101317.41;;;0.33;58.12
77572;BME280;67214;47.454;18.966;2023-02-28T00:03:50;101321.57;;;0.43;57.85
77572;BME280;67214;47.454;18.966;2023-02-28T00:06:18;101321.43;;;0.50;57.55
77572;BME280;67214;47.454;18.966;2023-02-28T00:08:46;101316.27;;;0.48;57.15
77572;BME280;67214;47.454;18.966;2023-02-28T00:11:15;101323.08;;;0.54;56.91
77572;BME280;67214;47.454;18.966;2023-02-28T00:13:45;101331.69;;;0.59;56.83
77572;BME280;67214;47.454;18.966;2023-02-28T00:16:16;101332.53;;;0.61;56.77
77572;BME280;67214;47.454;18.966;2023-02-28T00:18:43;101332.18;;;0.57;56.49
77572;BME280;67214;47.454;18.966;2023-02-28T00:21:11;101332.38;;;0.67;57.30
77572;BME280;67214;47.454;18.966;2023-02-28T00:23:39;101336.38;;;0.64;56.86
77572;BME280;67214;47.454;18.966;2023-02-28T00:26:06;101338.54;;;0.64;56.64
77572;BME280;67214;47.454;18.966;2023-02-28T00:28:34;101329.42;;;0.63;56.64
77572;BME280;67214;47.454;18.966;2023-02-28T00:31:01;101335.06;;;0.64;56.44
77572;BME280;67214;47.454;18.966;2023-02-28T00:33:30;101338.70;;;0.77;55.96
77572;BME280;67214;47.454;18.966;2023-02-28T00:36:06;101343.16;;;0.72;56.68
77572;BME280;67214;47.454;18.966;2023-02-28T00:38:34;101347.27;;;0.82;56.67
77572;BME280;67214;47.454;18.966;2023-02-28T00:41:01;101354.31;;;0.79;55.96
77572;BME280;67214;47.454;18.966;2023-02-28T00:43:36;101348.97;;;0.85;56.38
77572;BME280;67214;47.454;18.966;2023-02-28T00:46:05;101350.05;;;0.75;56.43
77572;BME280;67214;47.454;18.966;2023-02-28T00:48:32;101352.22;;;0.75;56.78
77572;BME280;67214;47.454;18.966;2023-02-28T00:51:00;101344.88;;;0.73;56.51
77572;BME280;67214;47.454;18.966;2023-02-28T00:53:28;101354.14;;;0.86;56.10
77572;BME280;67214;47.454;18.966;2023-02-28T00:55:56;101353.70;;;0.87;55.52
77572;BME280;67214;47.454;18.966;2023-02-28T00:58:23;101359.36;;;0.86;56.01
77572;BME280;67214;47.454;18.966;2023-02-28T01:00:51;101338.45;;;0.88;56.00
77572;BME280;67214;47.454;18.966;2023-02-28T01:03:21;101358.02;;;0.89;56.17
77572;BME280;67214;47.454;18.966;2023-02-28T01:05:49;101347.17;;;0.87;56.24
77572;BME280;67214;47.454;18.966;2023-02-28T01:08:16;101348.02;;;0.89;56.26
77572;BME280;67214;47.454;18.966;2023-02-28T01:10:44;101345.84;;;0.88;56.54
77572;BME280;67214;47.454;18.966;2023-02-28T01:13:12;101349.67;;;0.93;56.15
77572;BME280;67214;47.454;18.966;2023-02-28T01:15:42;101350.48;;;0.95;56.09
77572;BME280;67214;47.454;18.966;2023-02-28T01:18:10;101353.28;;;0.86;56.17
77572;BME280;67214;47.454;18.966;2023-02-28T01:20:38;101343.88;;;0.79;57.46
77572;BME280;67214;47.454;18.966;2023-02-28T01:23:06;101347.27;;;0.82;56.68
77572;BME280;67214;47.454;18.966;2023-02-28T01:25:35;101353.84;;;0.81;56.13
77572;BME280;67214;47.454;18.966;2023-02-28T01:28:03;101350.74;;;0.83;57.08
77572;BME280;67214;47.454;18.966;2023-02-28T01:30:32;101351.19;;;0.82;57.22
77572;BME280;67214;47.454;18.966;2023-02-28T01:33:00;101353.33;;;0.84;55.86
77572;BME280;67214;47.454;18.966;2023-02-28T01:35:27;101353.28;;;0.86;56.85
77572;BME280;67214;47.454;18.966;2023-02-28T01:37:54;101356.73;;;0.88;56.73
77572;BME280;67214;47.454;18.966;2023-02-28T01:40:23;101354.47;;;0.92;56.94
77572;BME280;67214;47.454;18.966;2023-02-28T01:42:50;101349.84;;;0.85;56.55
77572;BME280;67214;47.454;18.966;2023-02-28T01:45:28;101347.71;;;0.82;56.88
77572;BME280;67214;47.454;18.966;2023-02-28T01:47:59;101340.38;;;0.80;57.54
77572;BME280;67214;47.454;18.966;2023-02-28T01:50:30;101339.88;;;0.82;56.01
77572;BME280;67214;47.454;18.966;2023-02-28T01:53:01;101343.08;;;0.94;55.78
77572;BME280;67214;47.454;18.966;2023-02-28T01:55:29;101333.58;;;0.92;55.57
77572;BME280;67214;47.454;18.966;2023-02-28T01:58:00;101337.08;;;0.91;55.48
77572;BME280;67214;47.454;18.966;2023-02-28T02:00:30;101326.51;;;0.97;56.61
77572;BME280;67214;47.454;18.966;2023-02-28T02:02:59;101342.63;;;0.97;56.18
77572;BME280;67214;47.454;18.966;2023-02-28T02:05:30;101333.58;;;0.92;56.54
77572;BME280;67214;47.454;18.966;2023-02-28T02:08:04;101340.99;;;0.91;56.33
77572;BME280;67214;47.454;18.966;2023-02-28T02:10:36;101330.55;;;0.91;56.23
77572;BME280;67214;47.454;18.966;2023-02-28T02:13:15;101342.73;;;0.90;55.81
77572;BME280;67214;47.454;18.966;2023-02-28T02:18:49;101327.81;;;0.97;55.04
77572;BME280;67214;47.454;18.966;2023-02-28T02:29:32;101333.91;;;1.15;52.65
77572;BME280;67214;47.454;18.966;2023-02-28T02:32:56;101339.58;;;1.15;52.84
77572;BME280;67214;47.454;18.966;2023-02-28T02:38:23;101340.66;;;1.25;52.48
77572;BME280;67214;47.454;18.966;2023-02-28T02:43:47;101344.23;;;1.21;52.26
77572;BME280;67214;47.454;18.966;2023-02-28T02:46:29;101342.34;;;1.26;52.11
77572;BME280;67214;47.454;18.966;2023-02-28T02:48:59;101342.00;;;1.22;52.18
77572;BME280;67214;47.454;18.966;2023-02-28T02:51:28;101341.22;;;1.19;52.25
77572;BME280;67214;47.454;18.966;2023-02-28T02:54:04;101343.59;;;1.10;53.04
77572;BME280;67214;47.454;18.966;2023-02-28T02:56:29;101345.58;;;1.18;52.57
77572;BME280;67214;47.454;18.966;2023-02-28T02:59:01;101343.05;;;1.15;52.01
77572;BME280;67214;47.454;18.966;2023-02-28T03:01:30;101347.73;;;1.20;52.19
77572;BME280;67214;47.454;18.966;2023-02-28T03:04:10;101350.34;;;1.20;52.20
77572;BME280;67214;47.454;18.966;2023-02-28T03:06:34;101342.84;;;1.24;52.48
77572;BME280;67214;47.454;18.966;2023-02-28T03:09:02;101343.55;;;1.13;52.77
77572;BME280;67214;47.454;18.966;2023-02-28T03:11:31;101336.28;;;1.07;53.39
77572;BME280;67214;47.454;18.966;2023-02-28T03:25:20;101348.33;;;1.14;52.49
77572;BME280;67214;47.454;18.966;2023-02-28T03:28:00;101354.80;;;1.15;52.18
77572;BME280;67214;47.454;18.966;2023-02-28T03:30:46;101349.45;;;1.21;52.81
77572;BME280;67214;47.454;18.966;2023-02-28T03:33:15;101344.88;;;1.12;52.36
77572;BME280;67214;47.454;18.966;2023-02-28T03:35:49;101349.84;;;1.05;52.74
77572;BME280;67214;47.454;18.966;2023-02-28T03:38:22;101351.22;;;1.02;52.42
77572;BME280;67214;47.454;18.966;2023-02-28T03:40:58;101354.12;;;1.07;52.38
77572;BME280;67214;47.454;18.966;2023-02-28T03:43:23;101350.64;;;1.07;52.55
77572;BME280;67214;47.454;18.966;2023-02-28T03:45:51;101350.98;;;1.11;52.33
77572;BME280;67214;47.454;18.966;2023-02-28T03:48:26;101354.47;;;1.11;52.18
77572;BME280;67214;47.454;18.966;2023-02-28T03:50:54;101357.94;;;1.12;52.07
77572;BME280;67214;47.454;18.966;2023-02-28T03:53:28;101356.88;;;1.20;51.63
77572;BME280;67214;47.454;18.966;2023-02-28T03:55:59;101354.34;;;1.17;52.07
77572;BME280;67214;47.454;18.966;2023-02-28T04:03:50;101348.90;;;1.07;53.11
77572;BME280;67214;47.454;18.966;2023-02-28T04:06:22;101350.97;;;1.12;52.78
77572;BME280;67214;47.454;18.966;2023-02-28T04:08:50;101352.34;;;1.09;52.33
77572;BME280;67214;47.454;18.966;2023-02-28T04:11:36;101345.05;;;1.04;52.54
77572;BME280;67214;47.454;18.966;2023-02-28T04:14:06;101346.63;;;1.11;52.27
77572;BME280;67214;47.454;18.966;2023-02-28T04:16:36;101343.39;;;1.19;52.03
77572;BME280;67214;47.454;18.966;2023-02-28T04:19:05;101339.29;;;1.09;52.53
77572;BME280;67214;47.454;18.966;2023-02-28T04:21:35;101340.27;;;1.04;52.37
77572;BME280;67214;47.454;18.966;2023-02-28T04:24:04;101342.86;;;1.05;52.66
77572;BME280;67214;47.454;18.966;2023-02-28T04:26:36;101331.63;;;1.02;53.61
77572;BME280;67214;47.454;18.966;2023-02-28T04:29:05;101347.00;;;0.94;53.05
77572;BME280;67214;47.454;18.966;2023-02-28T04:31:34;101337.34;;;0.98;52.78
77572;BME280;67214;47.454;18.966;2023-02-28T04:34:02;101336.86;;;1.02;52.34
77572;BME280;67214;47.454;18.966;2023-02-28T04:36:29;101336.80;;;1.03;52.52
77572;BME280;67214;47.454;18.966;2023-02-28T04:38:57;101343.58;;;0.92;52.86
77572;BME280;67214;47.454;18.966;2023-02-28T04:41:24;101333.75;;;0.84;53.24
77572;BME280;67214;47.454;18.966;2023-02-28T04:43:52;101324.61;;;0.84;52.92
77572;BME280;67214;47.454;18.966;2023-02-28T04:46:20;101339.66;;;0.92;53.41
77572;BME280;67214;47.454;18.966;2023-02-28T04:48:47;101332.17;;;0.97;53.04
77572;BME280;67214;47.454;18.966;2023-02-28T04:51:17;101346.66;;;0.90;53.33
77572;BME280;67214;47.454;18.966;2023-02-28T04:53:46;101338.87;;;0.89;53.18
77572;BME280;67214;47.454;18.966;2023-02-28T04:56:16;101344.89;;;0.92;53.14
77572;BME280;67214;47.454;18.966;2023-02-28T04:58:44;101347.79;;;0.98;52.98
77572;BME280;67214;47.454;18.966;2023-02-28T05:03:56;101338.87;;;0.89;53.41
77572;BME280;67214;47.454;18.966;2023-02-28T05:06:26;101341.58;;;0.84;54.04
77572;BME280;67214;47.454;18.966;2023-02-28T05:08:54;101339.39;;;0.85;54.05
77572;BME280;67214;47.454;18.966;2023-02-28T05:11:28;101337.25;;;0.83;54.14
77572;BME280;67214;47.454;18.966;2023-02-28T05:13:57;101346.41;;;0.82;54.53
77572;BME280;67214;47.454;18.966;2023-02-28T05:16:24;101340.20;;;0.87;54.10
77572;BME280;67214;47.454;18.966;2023-02-28T05:18:52;101347.23;;;0.85;54.00
77572;BME280;67214;47.454;18.966;2023-02-28T05:21:37;101348.55;;;0.84;55.03
77572;BME280;67214;47.454;18.966;2023-02-28T05:24:12;101351.59;;;0.85;54.71
77572;BME280;67214;47.454;18.966;2023-02-28T05:26:37;101353.61;;;0.91;54.20
77572;BME280;67214;47.454;18.966;2023-02-28T05:29:05;101353.19;;;0.90;54.29
77572;BME280;67214;47.454;18.966;2023-02-28T05:31:33;101343.06;;;0.96;54.14
77572;BME280;67214;47.454;18.966;2023-02-28T05:34:01;101354.66;;;1.02;53.68
77572;BME280;67214;47.454;18.966;2023-02-28T05:36:32;101356.93;;;0.98;54.39
77572;BME280;67214;47.454;18.966;2023-02-28T05:38:59;101358.29;;;0.97;54.58
77572;BME280;67214;47.454;18.966;2023-02-28T05:41:27;101356.64;;;0.92;54.58
77572;BME280;67214;47.454;18.966;2023-02-28T05:43:54;101365.33;;;0.93;54.79
77572;BME280;67214;47.454;18.966;2023-02-28T05:46:22;101361.86;;;0.92;54.54
77572;BME280;67214;47.454;18.966;2023-02-28T05:48:49;101361.36;;;0.94;53.83
77572;BME280;67214;47.454;18.966;2023-02-28T05:51:17;101364.28;;;1.02;54.02
77572;BME280;67214;47.454;18.966;2023-02-28T05:53:45;101367.80;;;0.99;54.05
77572;BME280;67214;47.454;18.966;2023-02-28T05:56:13;101381.80;;;0.97;54.19
77572;BME280;67214;47.454;18.966;2023-02-28T05:58:40;101376.42;;;1.03;54.40
77572;BME280;67214;47.454;18.966;2023-02-28T06:01:23;101382.43;;;1.06;53.95
77572;BME280;67214;47.454;18.966;2023-02-28T06:03:51;101379.77;;;1.09;54.84
77572;BME280;67214;47.454;18.966;2023-02-28T06:06:18;101378.20;;;1.21;54.33
77572;BME280;67214;47.454;18.966;2023-02-28T06:08:46;101374.72;;;1.21;53.99
77572;BME280;67214;47.454;18.966;2023-02-28T06:11:14;101377.33;;;1.21;53.48
77572;BME280;67214;47.454;18.966;2023-02-28T06:13:41;101377.75;;;1.22;53.37
77572;BME280;67214;47.454;18.966;2023-02-28T06:16:10;101377.27;;;1.22;53.23
77572;BME280;67214;47.454;18.966;2023-02-28T06:18:38;101380.31;;;1.23;53.41
77572;BME280;67214;47.454;18.966;2023-02-28T06:21:06;101380.28;;;1.25;53.80
77572;BME280;67214;47.454;18.966;2023-02-28T06:23:35;101376.69;;;1.30;52.28
77572;BME280;67214;47.454;18.966;2023-02-28T06:26:02;101377.03;;;1.34;52.71
77572;BME280;67214;47.454;18.966;2023-02-28T06:28:30;101380.45;;;1.36;52.91
77572;BME280;67214;47.454;18.966;2023-02-28T06:30:57;101389.13;;;1.38;52.39
77572;BME280;67214;47.454;18.966;2023-02-28T06:33:25;101388.55;;;1.44;52.33
77572;BME280;67214;47.454;18.966;2023-02-28T06:35:52;101389.63;;;1.54;51.88
77572;BME280;67214;47.454;18.966;2023-02-28T06:38:20;101391.66;;;1.59;51.62
77572;BME280;67214;47.454;18.966;2023-02-28T06:40:55;101394.50;;;1.68;51.57
77572;BME280;67214;47.454;18.966;2023-02-28T06:43:24;101399.17;;;1.73;50.92
77572;BME280;67214;47.454;18.966;2023-02-28T06:45:57;101397.67;;;1.80;51.45
77572;BME280;67214;47.454;18.966;2023-02-28T06:48:25;101401.66;;;1.79;51.19
77572;BME280;67214;47.454;18.966;2023-02-28T06:51:10;101399.31;;;1.84;51.18
77572;BME280;67214;47.454;18.966;2023-02-28T06:53:36;101398.41;;;1.87;51.73
77572;BME280;67214;47.454;18.966;2023-02-28T06:56:07;101393.03;;;1.92;51.94
77572;BME280;67214;47.454;18.966;2023-02-28T06:58:35;101396.61;;;2.05;51.65
77572;BME280;67214;47.454;18.966;2023-02-28T07:01:04;101398.36;;;2.05;50.67
77572;BME280;67214;47.454;18.966;2023-02-28T07:03:32;101400.95;;;2.06;50.73
77572;BME280;67214;47.454;18.966;2023-02-28T07:06:00;101397.56;;;2.03;50.96
77572;BME280;67214;47.454;18.966;2023-02-28T07:08:28;101398.70;;;2.09;50.42
77572;BME280;67214;47.454;18.966;2023-02-28T07:10:56;101398.91;;;2.17;49.42
77572;BME280;67214;47.454;18.966;2023-02-28T07:13:23;101412.66;;;2.25;49.91
77572;BME280;67214;47.454;18.966;2023-02-28T07:16:02;101413.93;;;2.27;50.45
77572;BME280;67214;47.454;18.966;2023-02-28T07:18:24;101416.46;;;2.30;49.92
77572;BME280;67214;47.454;18.966;2023-02-28T07:20:52;101405.03;;;2.32;49.58
77572;BME280;67214;47.454;18.966;2023-02-28T07:23:20;101415.59;;;2.46;49.40
77572;BME280;67214;47.454;18.966;2023-02-28T07:25:49;101417.86;;;2.43;49.78
77572;BME280;67214;47.454;18.966;2023-02-28T07:28:16;101419.13;;;2.61;49.08
77572;BME280;67214;47.454;18.966;2023-02-28T07:30:44;101417.50;;;2.71;48.49
77572;BME280;67214;47.454;18.966;2023-02-28T07:33:11;101412.17;;;2.74;48.33
77572;BME280;67214;47.454;18.966;2023-02-28T07:35:39;101425.39;;;2.70;48.77
77572;BME280;67214;47.454;18.966;2023-02-28T07:38:07;101410.52;;;2.72;49.10
77572;BME280;67214;47.454;18.966;2023-02-28T07:40:35;101431.78;;;2.76;49.48
77572;BME280;67214;47.454;18.966;2023-02-28T07:43:03;101429.66;;;2.58;48.64
77572;BME280;67214;47.454;18.966;2023-02-28T07:45:31;101430.86;;;2.46;48.82
77572;BME280;67214;47.454;18.966;2023-02-28T07:48:01;101428.30;;;2.61;48.42
77572;BME280;67214;47.454;18.966;2023-02-28T07:50:29;101421.11;;;2.67;49.34
77572;BME280;67214;47.454;18.966;2023-02-28T07:52:58;101428.91;;;2.85;48.16
77572;BME280;67214;47.454;18.966;2023-02-28T07:55:25;101438.08;;;3.00;48.76
77572;BME280;67214;47.454;18.966;2023-02-28T07:57:53;101426.41;;;3.10;48.55
77572;BME280;67214;47.454;18.966;2023-02-28T08:00:20;101426.16;;;3.04;47.98
77572;BME280;67214;47.454;18.966;2023-02-28T08:02:48;101418.62;;;3.08;48.65
77572;BME280;67214;47.454;18.966;2023-02-28T08:05:16;101425.27;;;3.05;48.51
77572;BME280;67214;47.454;18.966;2023-02-28T08:07:43;101425.43;;;2.99;47.37
77572;BME280;67214;47.454;18.966;2023-02-28T08:10:11;101425.94;;;2.97;48.24
77572;BME280;67214;47.454;18.966;2023-02-28T08:12:38;101420.73;;;2.96;47.32
77572;BME280;67214;47.454;18.966;2023-02-28T08:15:06;101417.06;;;2.87;47.92
77572;BME280;67214;47.454;18.966;2023-02-28T08:17:34;101426.97;;;2.92;47.20
77572;BME280;67214;47.454;18.966;2023-02-28T08:20:02;101429.81;;;2.99;47.81
77572;BME280;67214;47.454;18.966;2023-02-28T08:22:31;101421.81;;;3.03;48.68
77572;BME280;67214;47.454;18.966;2023-02-28T08:24:58;101424.78;;;3.06;48.47
77572;BME280;67214;47.454;18.966;2023-02-28T08:27:26;101420.86;;;3.06;48.43
77572;BME280;67214;47.454;18.966;2023-02-28T08:29:53;101417.79;;;3.06;48.34
77572;BME280;67214;47.454;18.966;2023-02-28T08:32:21;101432.28;;;3.18;48.97
77572;BME280;67214;47.454;18.966;2023-02-28T08:34:48;101426.56;;;3.20;48.55
77572;BME280;67214;47.454;18.966;2023-02-28T08:37:16;101425.02;;;3.27;48.54
77572;BME280;67214;47.454;18.966;2023-02-28T08:39:43;101410.64;;;3.41;48.43
77572;BME280;67214;47.454;18.966;2023-02-28T08:42:11;101418.22;;;3.50;48.64
77572;BME280;67214;47.454;18.966;2023-02-28T08:44:38;101418.47;;;3.55;48.13
77572;BME280;67214;47.454;18.966;2023-02-28T08:47:06;101418.34;;;3.73;47.84
77572;BME280;67214;47.454;18.966;2023-02-28T08:49:34;101425.88;;;3.70;47.55
77572;BME280;67214;47.454;18.966;2023-02-28T08:52:01;101428.17;;;3.80;47.82
77572;BME280;67214;47.454;18.966;2023-02-28T08:54:29;101424.36;;;3.90;47.56
77572;BME280;67214;47.454;18.966;2023-02-28T08:56:58;101421.28;;;3.90;48.05
77572;BME280;67214;47.454;18.966;2023-02-28T08:59:25;101421.59;;;3.94;47.54
77572;BME280;67214;47.454;18.966;2023-02-28T09:01:53;101411.62;;;4.17;47.74
77572;BME280;67214;47.454;18.966;2023-02-28T09:04:22;101413.78;;;4.31;47.01
77572;BME280;67214;47.454;18.966;2023-02-28T09:06:50;101420.45;;;4.28;46.33
77572;BME280;67214;47.454;18.966;2023-02-28T09:09:17;101424.28;;;4.31;47.53
77572;BME280;67214;47.454;18.966;2023-02-28T09:11:45;101420.33;;;4.44;47.35
77572;BME280;67214;47.454;18.966;2023-02-28T09:14:12;101426.80;;;4.58;47.32
77572;BME280;67214;47.454;18.966;2023-02-28T09:16:40;101428.68;;;4.55;46.59
77572;BME280;67214;47.454;18.966;2023-02-28T09:19:12;101416.39;;;4.44;47.33
77572;BME280;67214;47.454;18.966;2023-02-28T09:21:40;101416.97;;;4.52;46.74
77572;BME280;67214;47.454;18.966;2023-02-28T09:24:08;101422.24;;;4.63;46.96
77572;BME280;67214;47.454;18.966;2023-02-28T09:26:37;101422.83;;;4.72;46.17
77572;BME280;67214;47.454;18.966;2023-02-28T09:29:05;101409.81;;;4.92;47.01
77572;BME280;67214;47.454;18.966;2023-02-28T09:31:33;101414.98;;;4.93;45.75
77572;BME280;67214;47.454;18.966;2023-02-28T09:34:04;101416.71;;;4.94;45.45
77572;BME280;67214;47.454;18.966;2023-02-28T09:36:33;101410.05;;;5.09;45.58
77572;BME280;67214;47.454;18.966;2023-02-28T09:39:03;101426.37;;;5.29;44.86
77572;BME280;67214;47.454;18.966;2023-02-28T09:41:38;101412.41;;;5.60;44.20
77572;BME280;67214;47.454;18.966;2023-02-28T09:44:17;101424.10;;;5.86;45.07
77572;BME280;67214;47.454;18.966;2023-02-28T09:46:43;101425.83;;;6.07;42.48
77572;BME280;67214;47.454;18.966;2023-02-28T09:49:22;101425.45;;;6.17;43.41
77572;BME280;67214;47.454;18.966;2023-02-28T09:51:56;101419.85;;;6.24;43.13
77572;BME280;67214;47.454;18.966;2023-02-28T09:54:24;101424.92;;;6.49;42.14
77572;BME280;67214;47.454;18.966;2023-02-28T09:57:13;101424.20;;;6.66;42.04
77572;BME280;67214;47.454;18.966;2023-02-28T09:59:44;101415.08;;;6.83;42.39
77572;BME280;67214;47.454;18.966;2023-02-28T10:02:21;101411.70;;;6.50;42.46
77572;BME280;67214;47.454;18.966;2023-02-28T10:10:13;101407.08;;;6.45;43.37
77572;BME280;67214;47.454;18.966;2023-02-28T10:12:36;101411.84;;;6.47;43.24
77572;BME280;67214;47.454;18.966;2023-02-28T10:15:07;101408.86;;;6.45;42.96
77572;BME280;67214;47.454;18.966;2023-02-28T10:17:38;101410.89;;;6.48;43.00
77572;BME280;67214;47.454;18.966;2023-02-28T10:20:13;101397.00;;;6.45;42.86
77572;BME280;67214;47.454;18.966;2023-02-28T10:25:36;101395.09;;;6.59;42.93
77572;BME280;67214;47.454;18.966;2023-02-28T10:28:15;101394.23;;;6.68;44.03
77572;BME280;67214;47.454;18.966;2023-02-28T10:30:50;101385.26;;;6.72;42.96
77572;BME280;67214;47.454;18.966;2023-02-28T10:33:23;101397.34;;;6.86;42.95
77572;BME280;67214;47.454;18.966;2023-02-28T10:35:52;101402.50;;;6.69;43.42
77572;BME280;67214;47.454;18.966;2023-02-28T10:38:25;101396.63;;;6.73;44.20
77572;BME280;67214;47.454;18.966;2023-02-28T10:41:10;101393.97;;;6.64;43.22
77572;BME280;67214;47.454;18.966;2023-02-28T10:43:35;101384.00;;;6.61;43.04
77572;BME280;67214;47.454;18.966;2023-02-28T10:49:01;101372.45;;;6.73;43.28
77572;BME280;67214;47.454;18.966;2023-02-28T10:51:40;101367.81;;;7.07;41.80
77572;BME280;67214;47.454;18.966;2023-02-28T10:54:05;101375.17;;;7.09;42.16
77572;BME280;67214;47.454;18.966;2023-02-28T10:56:32;101362.27;;;7.13;41.35
77572;BME280;67214;47.454;18.966;2023-02-28T10:59:27;101372.02;;;7.11;42.19
77572;BME280;67214;47.454;18.966;2023-02-28T11:01:55;101373.50;;;6.98;43.11
77572;BME280;67214;47.454;18.966;2023-02-28T11:07:00;101359.34;;;7.00;42.53
77572;BME280;67214;47.454;18.966;2023-02-28T11:09:33;101362.69;;;7.04;42.35
77572;BME280;67214;47.454;18.966;2023-02-28T11:12:03;101367.88;;;7.24;43.32
77572;BME280;67214;47.454;18.966;2023-02-28T11:14:35;101372.37;;;7.58;42.13
77572;BME280;67214;47.454;18.966;2023-02-28T11:17:27;101372.12;;;7.81;41.51
77572;BME280;67214;47.454;18.966;2023-02-28T11:19:58;101365.58;;;7.80;41.07
77572;BME280;67214;47.454;18.966;2023-02-28T11:22:27;101358.76;;;7.93;41.54
77572;BME280;67214;47.454;18.966;2023-02-28T11:24:59;101361.09;;;8.42;40.63
77572;BME280;67214;47.454;18.966;2023-02-28T11:30:01;101351.58;;;9.35;39.12
77572;BME280;67214;47.454;18.966;2023-02-28T11:32:31;101353.29;;;9.36;39.39
77572;BME280;67214;47.454;18.966;2023-02-28T11:35:17;101348.69;;;9.24;39.14
77572;BME280;67214;47.454;18.966;2023-02-28T11:37:43;101346.97;;;8.92;38.68
77572;BME280;67214;47.454;18.966;2023-02-28T11:40:21;101358.25;;;8.62;40.09
77572;BME280;67214;47.454;18.966;2023-02-28T11:42:57;101353.45;;;8.53;40.44
77572;BME280;67214;47.454;18.966;2023-02-28T11:56:03;101349.84;;;8.71;40.23
77572;BME280;67214;47.454;18.966;2023-02-28T11:58:37;101341.75;;;8.66;40.03
77572;BME280;67214;47.454;18.966;2023-02-28T12:01:09;101337.20;;;8.76;39.64
77572;BME280;67214;47.454;18.966;2023-02-28T12:06:38;101331.05;;;9.16;39.38
77572;BME280;67214;47.454;18.966;2023-02-28T12:09:20;101324.26;;;9.19;38.95
77572;BME280;67214;47.454;18.966;2023-02-28T12:14:53;101320.61;;;9.44;38.56
77572;BME280;67214;47.454;18.966;2023-02-28T12:18:07;101328.30;;;9.02;39.30
77572;BME280;67214;47.454;18.966;2023-02-28T12:19:58;101309.61;;;9.05;39.04
77572;BME280;67214;47.454;18.966;2023-02-28T12:25:24;101314.64;;;9.41;39.10
77572;BME280;67214;47.454;18.966;2023-02-28T12:27:51;101301.80;;;9.78;38.15
77572;BME280;67214;47.454;18.966;2023-02-28T12:30:32;101305.48;;;10.13;37.75
77572;BME280;67214;47.454;18.966;2023-02-28T12:33:09;101304.31;;;9.96;37.34
77572;BME280;67214;47.454;18.966;2023-02-28T12:35:47;101302.20;;;10.16;37.65
77572;BME280;67214;47.454;18.966;2023-02-28T12:41:19;101289.53;;;10.21;37.52
77572;BME280;67214;47.454;18.966;2023-02-28T12:44:00;101285.28;;;10.54;37.64
77572;BME280;67214;47.454;18.966;2023-02-28T12:46:21;101286.73;;;10.02;37.89
77572;BME280;67214;47.454;18.966;2023-02-28T12:48:51;101291.45;;;10.11;38.06
77572;BME280;67214;47.454;18.966;2023-02-28T12:51:19;101290.59;;;9.96;37.76
77572;BME280;67214;47.454;18.966;2023-02-28T12:54:11;101293.83;;;9.94;37.98
77572;BME280;67214;47.454;18.966;2023-02-28T12:59:56;101269.98;;;9.94;38.66
77572;BME280;67214;47.454;18.966;2023-02-28T13:10:47;101278.56;;;9.08;39.70
77572;BME280;67214;47.454;18.966;2023-02-28T13:13:19;101270.10;;;8.70;40.62
77572;BME280;67214;47.454;18.966;2023-02-28T13:16:08;101273.61;;;8.71;41.00
77572;BME280;67214;47.454;18.966;2023-02-28T13:18:46;101273.64;;;8.78;40.58
77572;BME280;67214;47.454;18.966;2023-02-28T13:21:27;101271.86;;;8.78;40.95
77572;BME280;67214;47.454;18.966;2023-02-28T13:23:56;101250.83;;;9.22;40.00
77572;BME280;67214;47.454;18.966;2023-02-28T13:34:46;101262.28;;;10.89;37.26
77572;BME280;67214;47.454;18.966;2023-02-28T13:40:06;101248.27;;;13.28;34.25
77572;BME280;67214;47.454;18.966;2023-02-28T13:42:34;101241.48;;;12.57;34.41
77572;BME280;67214;47.454;18.966;2023-02-28T13:47:49;101248.05;;;10.28;37.93
77572;BME280;67214;47.454;18.966;2023-02-28T13:53:24;101247.97;;;9.18;40.25
77572;BME280;67214;47.454;18.966;2023-02-28T14:01:22;101246.12;;;7.83;43.64
77572;BME280;67214;47.454;18.966;2023-02-28T14:06:33;101248.22;;;7.42;44.86
77572;BME280;67214;47.454;18.966;2023-02-28T14:09:29;101245.12;;;7.52;45.05
77572;BME280;67214;47.454;18.966;2023-02-28T14:17:15;101241.33;;;7.48;44.83
77572;BME280;67214;47.454;18.966;2023-02-28T14:19:45;101245.52;;;7.53;45.61
77572;BME280;67214;47.454;18.966;2023-02-28T14:22:49;101238.23;;;7.58;44.95
77572;BME280;67214;47.454;18.966;2023-02-28T14:25:44;101246.98;;;7.58;44.42
77572;BME280;67214;47.454;18.966;2023-02-28T14:28:16;101235.19;;;7.39;45.13
77572;BME280;67214;47.454;18.966;2023-02-28T14:36:41;101221.98;;;7.31;45.25
77572;BME280;67214;47.454;18.966;2023-02-28T14:38:56;101223.41;;;7.29;45.73
77572;BME280;67214;47.454;18.966;2023-02-28T14:41:37;101224.16;;;7.23;45.45
77572;BME280;67214;47.454;18.966;2023-02-28T14:46:55;101225.55;;;7.30;45.58
77572;BME280;67214;47.454;18.966;2023-02-28T14:49:37;101221.53;;;7.40;45.44
77572;BME280;67214;47.454;18.966;2023-02-28T14:52:31;101218.12;;;7.29;45.79
77572;BME280;67214;47.454;18.966;2023-02-28T14:54:57;101219.02;;;7.11;45.99
77572;BME280;67214;47.454;18.966;2023-02-28T14:57:28;101232.50;;;7.05;46.34
77572;BME280;67214;47.454;18.966;2023-02-28T15:00:22;101222.42;;;6.96;46.05
77572;BME280;67214;47.454;18.966;2023-02-28T15:02:45;101237.42;;;6.85;46.25
77572;BME280;67214;47.454;18.966;2023-02-28T15:07:44;101225.70;;;6.82;46.48
77572;BME280;67214;47.454;18.966;2023-02-28T15:10:16;101229.20;;;6.83;46.50
77572;BME280;67214;47.454;18.966;2023-02-28T15:12:49;101238.48;;;6.81;46.90
77572;BME280;67214;47.454;18.966;2023-02-28T15:15:17;101237.55;;;6.74;47.14
77572;BME280;67214;47.454;18.966;2023-02-28T15:17:47;101244.89;;;6.67;47.50